Flight Track Log - Related Links

Times and Time Zones

All times are in EDT time to prevent confusion due to time zone crossing. See the N406TM flight status page for this flight to view local times or setup timezone preferences in your user account.

Time Position Orientation Groundspeed Altitude Reporting Facility
EDT Latitude Longitude Course Direction KTS MPH feet Rate Location/Type
Sun 12:50:14 AM 42.6000 -87.9167 56° Northeast 194 223 1,300  Level KMKE
Sun 12:50:50 AM 42.6167 -87.8833 56° Northeast 190 219 2,900 2,607 Climbing KMKE
Sun 12:52:16 AM 42.6786 -87.8089 41° Northeast 226 260 6,600 2,877 Climbing Chicago Center
Sun 12:53:16 AM 42.7292 -87.7378 46° Northeast 257 296 9,900 3,200 Climbing Chicago Center
Sun 12:54:16 AM 42.7458 -87.6381 77° East 277 319 13,000 2,826 Climbing Chicago Center
Sun 12:55:17 AM 42.7431 -87.5289 92° East 287 330 15,600 2,579 Climbing Chicago Center
Sun 12:56:17 AM 42.7314 -87.3883 96° East 312 359 18,200 2,400 Climbing Chicago Center
Sun 12:57:17 AM 42.7228 -87.2725 96° East 319 367 20,400 2,200 Climbing Chicago Center
Sun 12:58:17 AM 42.7125 -87.1425 96° East 341 392 22,600 2,083 Climbing Chicago Center
Sun 12:59:18 AM 42.7011 -87.0092 97° East 352 405 24,600 1,983 Climbing Chicago Center
Sun 01:00:18 AM 42.6894 -86.8692 96° East 371 427 26,600 1,900 Climbing Chicago Center
Sun 01:01:18 AM 42.6778 -86.7294 96° East 372 428 28,400 1,500 Climbing Chicago Center
Sun 01:02:18 AM 42.6650 -86.5850 97° East 385 443 29,600 1,200 Climbing Chicago Center
Sun 01:03:18 AM 42.6522 -86.4317 96° East 405 466 30,800 1,190 Climbing Chicago Center
Sun 01:04:19 AM 42.6381 -86.2764 97° East 416 479 32,000 1,240 Climbing Chicago Center
Sun 01:05:19 AM 42.6236 -86.1181 97° East 421 484 33,300 1,350 Climbing Chicago Center
Sun 01:06:19 AM 42.6092 -85.9600 97° East 423 487 34,700 1,350 Climbing Chicago Center
Sun 01:07:19 AM 42.5947 -85.8033 97° East 424 488 36,000 1,140 Climbing Chicago Center
Sun 01:08:20 AM 42.5792 -85.6456 98° East 424 488 37,000 992 Climbing Chicago Center
Sun 01:09:20 AM 42.5650 -85.4875 97° East 424 488 38,000 1,000 Climbing Chicago Center
Sun 01:10:20 AM 42.5497 -85.3286 97° East 426 490 39,000 500 Climbing Chicago Center
Sun 01:11:20 AM 42.5339 -85.1650 97° East 434 499 39,000  Level Chicago Center
Sun 01:12:21 AM 42.5169 -84.9947 98° East 451 519 39,000  Level Chicago Center
Sun 01:13:15 AM 42.4989 -84.8194 98° East 463 533 39,000  Level Cleveland Center
Sun 01:14:15 AM 42.4811 -84.6461 98° East 466 536 39,000  Level Cleveland Center
Sun 01:15:16 AM 42.4639 -84.4744 98° East 466 536 39,000  Level Cleveland Center
Sun 01:16:16 AM 42.4453 -84.3025 98° East 461 531 39,000  Level Cleveland Center
Sun 01:17:16 AM 42.4269 -84.1314 98° East 461 531 39,000  Level Cleveland Center
Sun 01:18:16 AM 42.4086 -83.9600 98° East 461 531 39,000  Level Cleveland Center
Sun 01:19:16 AM 42.3889 -83.7836 99° East 466 536 39,000  Level Cleveland Center
Sun 01:20:17 AM 42.3692 -83.6061 98° East 473 544 39,000  Level Cleveland Center
Sun 01:21:17 AM 42.3481 -83.4225 99° East 479 551 39,000  Level Cleveland Center
Sun 01:22:17 AM 42.3258 -83.2436 99° East 480 552 39,000  Level Cleveland Center
Sun 01:23:17 AM 42.3044 -83.0564 99° East 482 555 39,000  Level Cleveland Center
Sun 01:24:17 AM 42.2836 -82.8769 99° East 482 555 39,000  Level Cleveland Center
Sun 01:25:17 AM 42.2617 -82.6972 99° East 483 556 39,000  Level Cleveland Center
Sun 01:26:18 AM 42.2400 -82.5189 99° East 485 558 39,000  Level Cleveland Center
Sun 01:27:18 AM 42.2175 -82.3392 100° East 486 559 39,000  Level Cleveland Center
Sun 01:28:18 AM 42.1947 -82.1606 100° East 486 559 39,000  Level Cleveland Center
Sun 01:29:18 AM 42.1758 -82.0092 100° East 478 550 39,000  Level Cleveland Center
Sun 01:30:18 AM 42.1533 -81.8331 100° East 476 548 39,000  Level Cleveland Center
Sun 01:31:18 AM 42.1311 -81.6592 100° East 468 539 39,000  Level Cleveland Center
Sun 01:32:18 AM 42.1069 -81.4833 100° East 471 542 39,000  Level Cleveland Center
Sun 01:33:19 AM 42.0839 -81.3067 100° East 472 543 39,000  Level Cleveland Center
Sun 01:34:19 AM 42.0594 -81.1289 100° East 476 548 39,000  Level Cleveland Center
Sun 01:35:19 AM 42.0347 -80.9514 101° East 477 549 39,000  Level Cleveland Center
Sun 01:36:19 AM 42.0103 -80.7731 100° East 477 549 39,000  Level Cleveland Center
Sun 01:37:19 AM 41.9861 -80.5981 100° East 476 548 39,000  Level Cleveland Center
Sun 01:38:19 AM 41.9606 -80.4206 101° East 477 549 39,000  Level Cleveland Center
Sun 01:39:19 AM 41.9353 -80.2450 101° East 475 547 39,000  Level Cleveland Center
Sun 01:40:20 AM 41.9100 -80.0661 101° East 482 555 39,000  Level Cleveland Center
Sun 01:41:20 AM 41.8844 -79.8883 101° East 482 555 39,000  Level Cleveland Center
Sun 01:42:20 AM 41.8564 -79.7103 102° East 485 558 39,000  Level Cleveland Center
Sun 01:43:20 AM 41.8311 -79.5350 101° East 476 548 39,000  Level Cleveland Center
Sun 01:44:20 AM 41.8053 -79.3603 101° East 477 549 39,000  Level Cleveland Center
Sun 01:45:20 AM 41.7758 -79.1767 102° East 483 556 39,000  Level Cleveland Center
Sun 01:46:21 AM 41.7494 -79.0031 101° East 482 555 39,000  Level Cleveland Center
Sun 01:47:20 AM 41.7242 -78.8378 102° East 475 547 39,000  Level Cleveland Center
Sun 01:48:20 AM 41.6964 -78.6644 102° East 474 545 39,000  Level Cleveland Center
Sun 01:49:21 AM 41.6686 -78.4917 102° East 475 547 39,000  Level Cleveland Center
Sun 01:50:21 AM 41.6422 -78.3219 102° East 473 544 39,000  Level Cleveland Center
Sun 01:51:21 AM 41.6142 -78.1536 103° East 470 541 39,000  Level Cleveland Center
Sun 01:52:21 AM 41.5867 -77.9878 102° East 464 534 39,000 -756 Level Cleveland Center
Sun 02:16:37 AM 40.9333 -74.2833 101° East 376 433 19,900 -792 Descending New York TRACON
Sun 02:17:00 AM 40.9260 -74.3871 108° East  Level FlightAware Approximate
Sun 02:17:37 AM 40.8833 -74.1667 120° Southeast 370 426 19,000  Level New York TRACON
Sun 02:18:00 AM 40.8903 -74.2446 108° East  Level FlightAware Approximate
Sun 02:18:37 AM 40.8500 -74.0500 111° Southeast 364 419 18,800  Level New York TRACON
Sun 02:19:00 AM 40.8637 -74.0988 102° East  Level FlightAware Approximate
Sun 02:19:37 AM 40.8000 -73.9333 119° Southeast 346 398 17,600  Level New York TRACON
Sun 02:20:00 AM 40.8372 -73.9529 105° East  Level FlightAware Approximate
Sun 02:20:37 AM 40.7500 -73.8333 123° Southeast 322 371 14,600  Level New York TRACON
Sun 02:21:00 AM 40.8041 -73.8118 101° East  Level FlightAware Approximate
Sun 02:21:43 AM 40.7000 -73.7333 123° Southeast 315 362 10,300  Level New York TRACON
Sun 02:22:43 AM 40.7000 -73.6333 90° East 263 303 6,500 -3,400 Descending New York TRACON
Sun 02:23:43 AM 40.7500 -73.6333 360° North 256 295 3,500 -2,250 Descending New York TRACON
Sun 02:24:43 AM 40.8167 -73.6167 11° North 233 268 2,000 -700 Descending New York TRACON
Sun 02:25:43 AM 40.8000 -73.5500 108° East 184 212 2,100 -200 Climbing New York TRACON
Sun 02:26:43 AM 40.7833 -73.4833 108° East 183 211 1,600 -700 Descending New York TRACON
Sun 02:27:43 AM 40.7500 -73.4500 143° Southeast 141 162 700 -900 Descending New York TRACON
Sun 02:29:00 AM 40.7288 -73.4134 102° East  Level Estimated
Sun 02:36:00 AM 40.7288 -73.4134 102° East  Level Estimated
Sun 02:37:00 AM 40.7288 -73.4134 102° East  Level Estimated
Sun 02:38:00 AM 40.7288 -73.4134 102° East  Level Estimated
Sun 02:39:00 AM 40.7288 -73.4134 102° East  Level Estimated
Sun 02:40:00 AM 40.7288 -73.4134 102° East  Level Estimated
Sun 02:41:00 AM 40.7288 -73.4134 102° East  Level Estimated
Sun 02:42:00 AM 40.7288 -73.4134 102° East  Level Estimated
Sun 02:43:00 AM 40.7288 -73.4134 102° East  Level Estimated

Login

Don't have an account? Register now (free) for customized features, flight alerts, and more!